createdAt,value
2023-04-09T00:00:04.547Z,65.60
2023-04-09T00:00:17.373Z,63.05
2023-04-09T00:00:51.398Z,62.45
2023-04-09T00:01:19.793Z,59.33
2023-04-09T00:01:32.451Z,59.95
2023-04-09T00:01:45.075Z,58.60
2023-04-09T00:01:57.701Z,58.45
2023-04-09T00:02:10.565Z,58.95
2023-04-09T00:02:25.226Z,60.85
2023-04-09T00:02:38.215Z,58.42
2023-04-09T00:02:51.244Z,56.90
2023-04-09T00:03:04.031Z,57.45
2023-04-09T00:03:17.203Z,58.78
2023-04-09T00:03:30.470Z,58.85
2023-04-09T00:03:44.231Z,57.63
2023-04-09T00:03:57.050Z,56.40
2023-04-09T00:04:09.821Z,55.83
2023-04-09T00:04:22.529Z,56.28
2023-04-09T00:04:35.521Z,57.28
2023-04-09T00:04:48.314Z,57.63
2023-04-09T00:05:03.168Z,55.88
2023-04-09T00:05:16.829Z,55.63
2023-04-09T00:05:29.482Z,57.72
2023-04-09T00:05:42.225Z,55.90
2023-04-09T00:05:56.152Z,56.60
2023-04-09T00:06:09.028Z,57.75
2023-04-09T00:06:21.627Z,56.30
2023-04-09T00:06:35.224Z,54.97
2023-04-09T00:06:47.835Z,58.60
2023-04-09T00:07:00.954Z,59.90
2023-04-09T00:07:13.574Z,61.50
2023-04-09T00:07:26.215Z,58.38
2023-04-09T00:07:38.916Z,58.58
2023-04-09T00:07:51.813Z,59.00
2023-04-09T00:08:04.715Z,58.75
2023-04-09T00:08:18.291Z,57.63
2023-04-09T00:08:31.276Z,56.55
2023-04-09T00:08:44.090Z,56.25
2023-04-09T00:08:56.755Z,57.30
2023-04-09T00:09:09.323Z,57.47
2023-04-09T00:09:21.939Z,56.53
2023-04-09T00:09:34.581Z,58.17
2023-04-09T00:09:47.434Z,60.25
2023-04-09T00:10:01.027Z,60.17
2023-04-09T00:10:13.644Z,58.30
2023-04-09T00:10:26.256Z,57.30
2023-04-09T00:10:38.855Z,57.17
2023-04-09T00:10:51.921Z,56.60
2023-04-09T00:11:06.236Z,59.13
2023-04-09T00:11:18.852Z,58.53
2023-04-09T00:11:31.795Z,56.25
2023-04-09T00:11:44.464Z,56.92
2023-04-09T00:11:58.268Z,57.95
2023-04-09T00:12:11.215Z,58.20
2023-04-09T00:12:23.844Z,57.28
2023-04-09T00:12:37.883Z,57.53
2023-04-09T00:12:50.489Z,56.47
2023-04-09T00:13:03.131Z,55.38
2023-04-09T00:13:20.357Z,56.63
2023-04-09T00:13:39.620Z,59.85
2023-04-09T00:13:52.631Z,58.86
2023-04-09T00:14:06.290Z,58.40
2023-04-09T00:14:18.954Z,57.58
2023-04-09T00:14:31.559Z,57.47
2023-04-09T00:14:44.416Z,57.28
2023-04-09T00:14:57.212Z,57.92
2023-04-09T00:15:13.098Z,57.78
2023-04-09T00:15:31.835Z,58.63
2023-04-09T00:15:45.778Z,58.05
2023-04-09T00:15:58.378Z,56.95
2023-04-09T00:16:11.070Z,56.33
2023-04-09T00:16:23.804Z,56.72
2023-04-09T00:16:36.531Z,58.25
2023-04-09T00:16:50.188Z,59.03
2023-04-09T00:17:02.823Z,58.80
2023-04-09T00:17:15.859Z,57.90
2023-04-09T00:17:28.483Z,55.75
2023-04-09T00:17:41.571Z,58.40
2023-04-09T00:17:54.288Z,61.28
2023-04-09T00:18:06.893Z,59.65
2023-04-09T00:18:20.656Z,58.83
2023-04-09T00:18:33.324Z,61.47
2023-04-09T00:18:46.461Z,61.58
2023-04-09T00:18:59.051Z,59.10
2023-04-09T00:19:11.730Z,58.63
2023-04-09T00:19:24.359Z,59.00
2023-04-09T00:19:37.095Z,56.72
2023-04-09T00:19:49.725Z,55.08
2023-04-09T00:20:05.154Z,55.35
2023-04-09T00:20:17.807Z,60.38
2023-04-09T00:20:30.459Z,62.45
2023-04-09T00:20:43.831Z,61.40
2023-04-09T00:20:56.422Z,58.53
2023-04-09T00:21:09.067Z,58.15
2023-04-09T00:21:22.625Z,60.63
2023-04-09T00:21:35.412Z,62.47
2023-04-09T00:21:48.457Z,61.15
2023-04-09T00:22:01.435Z,61.25
2023-04-09T00:22:14.986Z,58.97
2023-04-09T00:22:27.740Z,59.35
2023-04-09T00:22:41.573Z,60.25
2023-04-09T00:22:54.394Z,60.75
2023-04-09T00:23:07.022Z,61.42
2023-04-09T00:23:20.594Z,61.33
2023-04-09T00:23:33.216Z,60.67
2023-04-09T00:23:45.823Z,59.45
2023-04-09T00:23:59.402Z,59.25
2023-04-09T00:24:12.015Z,61.08
2023-04-09T00:24:24.731Z,60.10
2023-04-09T00:24:37.359Z,59.92
2023-04-09T00:24:49.955Z,59.35
2023-04-09T00:25:02.591Z,59.50
2023-04-09T00:25:15.722Z,60.03
2023-04-09T00:25:29.755Z,61.63
2023-04-09T00:25:42.373Z,59.45
2023-04-09T00:25:54.988Z,57.35
2023-04-09T00:26:07.737Z,57.80
2023-04-09T00:26:21.457Z,58.53
2023-04-09T00:26:34.072Z,59.85
2023-04-09T00:26:46.894Z,58.10
2023-04-09T00:26:59.464Z,58.15
2023-04-09T00:27:12.098Z,62.20
2023-04-09T00:27:25.977Z,61.17
2023-04-09T00:27:38.589Z,58.58
2023-04-09T00:27:51.482Z,61.30
2023-04-09T00:28:04.106Z,63.53
2023-04-09T00:28:16.807Z,61.83
2023-04-09T00:28:29.426Z,57.70
2023-04-09T00:28:43.157Z,58.40
2023-04-09T00:28:55.732Z,60.08
2023-04-09T00:29:08.370Z,60.70
2023-04-09T00:29:21.131Z,60.70
2023-04-09T00:29:33.759Z,61.63
2023-04-09T00:29:47.498Z,62.13
2023-04-09T00:30:00.050Z,62.92
2023-04-09T00:30:13.960Z,62.13
2023-04-09T00:30:28.769Z,59.10
2023-04-09T00:30:41.375Z,60.08
2023-04-09T00:30:54.039Z,61.70
2023-04-09T00:31:07.967Z,60.35
2023-04-09T00:31:21.000Z,57.38
2023-04-09T00:31:33.646Z,58.13
2023-04-09T00:31:47.208Z,60.40
2023-04-09T00:31:59.921Z,60.00
2023-04-09T00:32:12.567Z,59.25
2023-04-09T00:32:25.194Z,60.60
2023-04-09T00:32:37.826Z,62.50
2023-04-09T00:32:50.688Z,61.72
2023-04-09T00:33:04.684Z,58.58
2023-04-09T00:33:17.341Z,58.22
2023-04-09T00:33:30.506Z,60.30
2023-04-09T00:33:43.248Z,58.72
2023-04-09T00:33:56.285Z,57.65
2023-04-09T00:34:09.146Z,60.00
2023-04-09T00:34:21.749Z,60.42
2023-04-09T00:34:35.502Z,60.85
2023-04-09T00:34:48.718Z,61.03
2023-04-09T00:35:01.414Z,62.00
2023-04-09T00:35:17.521Z,62.85
2023-04-09T00:35:30.698Z,63.28
2023-04-09T00:35:43.427Z,61.65
2023-04-09T00:35:56.242Z,60.13
2023-04-09T00:36:08.911Z,61.08
2023-04-09T00:36:23.368Z,62.92
2023-04-09T00:36:36.716Z,61.22
2023-04-09T00:36:49.337Z,62.03
2023-04-09T00:37:01.935Z,61.17
2023-04-09T00:37:14.543Z,60.55
2023-04-09T00:37:27.385Z,57.38
2023-04-09T00:37:39.993Z,59.58
2023-04-09T00:37:53.647Z,60.03
2023-04-09T00:38:06.515Z,59.30
2023-04-09T00:38:19.309Z,57.97
2023-04-09T00:38:32.048Z,58.05
2023-04-09T00:38:45.099Z,60.90
2023-04-09T00:38:58.740Z,62.78
2023-04-09T00:39:11.448Z,60.97
2023-04-09T00:39:25.097Z,60.78
2023-04-09T00:39:37.701Z,59.03
2023-04-09T00:39:50.763Z,57.15
2023-04-09T00:40:04.227Z,57.72
2023-04-09T00:40:16.916Z,58.67
2023-04-09T00:40:29.782Z,58.00
2023-04-09T00:40:42.474Z,59.08
2023-04-09T00:40:56.240Z,59.05
2023-04-09T00:41:09.120Z,60.00
2023-04-09T00:41:21.894Z,60.70
2023-04-09T00:41:34.488Z,61.67
2023-04-09T00:41:47.373Z,61.63
2023-04-09T00:42:02.606Z,58.42
2023-04-09T00:42:16.572Z,57.22
2023-04-09T00:42:32.369Z,57.63
2023-04-09T00:42:44.979Z,60.25
2023-04-09T00:42:57.572Z,61.63
2023-04-09T00:43:10.526Z,62.03
2023-04-09T00:43:23.179Z,59.85
2023-04-09T00:43:35.814Z,58.22
2023-04-09T00:43:49.371Z,60.33
2023-04-09T00:44:01.949Z,64.82
2023-04-09T00:44:14.557Z,63.10
2023-04-09T00:44:27.116Z,64.18
2023-04-09T00:44:39.906Z,61.90
2023-04-09T00:44:52.513Z,60.50
2023-04-09T00:45:07.314Z,62.63
2023-04-09T00:45:19.911Z,63.25
2023-04-09T00:45:33.046Z,62.65
2023-04-09T00:45:46.062Z,61.00
2023-04-09T00:45:59.025Z,60.40
2023-04-09T00:46:11.728Z,60.80
2023-04-09T00:46:24.584Z,62.13
2023-04-09T00:46:38.328Z,62.55
2023-04-09T00:46:50.985Z,63.47
2023-04-09T00:47:03.971Z,64.38
2023-04-09T00:47:16.703Z,62.67
2023-04-09T00:47:30.988Z,62.75
2023-04-09T00:47:46.084Z,61.88
2023-04-09T00:47:59.789Z,59.03
2023-04-09T00:48:13.263Z,58.42
2023-04-09T00:48:26.756Z,62.03
2023-04-09T00:48:39.616Z,62.95
2023-04-09T00:48:52.492Z,63.72
2023-04-09T00:49:06.115Z,62.55
2023-04-09T00:49:20.113Z,64.07
2023-04-09T00:49:33.456Z,63.92
2023-04-09T00:49:46.115Z,64.65
2023-04-09T00:49:59.305Z,67.00
2023-04-09T00:50:12.217Z,64.18
2023-04-09T00:50:26.214Z,63.65
2023-04-09T00:50:39.855Z,62.17
2023-04-09T00:50:52.607Z,60.20
2023-04-09T00:51:05.335Z,63.25
2023-04-09T00:51:17.987Z,66.43
2023-04-09T00:51:31.487Z,65.88
2023-04-09T00:51:45.115Z,63.70
2023-04-09T00:51:58.805Z,62.78
2023-04-09T00:52:11.533Z,62.35
2023-04-09T00:52:25.396Z,63.30
2023-04-09T00:52:38.551Z,64.50
2023-04-09T00:52:51.371Z,62.10
2023-04-09T00:53:05.463Z,60.53
2023-04-09T00:53:19.427Z,62.75
2023-04-09T00:53:32.115Z,62.45
2023-04-09T00:53:44.828Z,62.25
2023-04-09T00:53:57.754Z,62.33
2023-04-09T00:54:10.950Z,63.17
2023-04-09T00:54:23.677Z,62.72
2023-04-09T00:54:36.564Z,63.20
2023-04-09T00:54:50.038Z,64.18
2023-04-09T00:55:06.172Z,63.88
2023-04-09T00:55:19.717Z,64.18
2023-04-09T00:55:33.115Z,63.38
2023-04-09T00:55:45.985Z,62.92
2023-04-09T00:55:58.665Z,62.97
2023-04-09T00:56:13.617Z,63.55
2023-04-09T00:56:27.274Z,65.35
2023-04-09T00:56:41.483Z,64.85
2023-04-09T00:56:56.124Z,64.57
2023-04-09T00:57:09.216Z,65.78
2023-04-09T00:57:21.867Z,64.25
2023-04-09T00:57:34.590Z,63.03
2023-04-09T00:57:47.187Z,62.05
2023-04-09T00:58:00.401Z,61.53
2023-04-09T00:58:14.685Z,60.63
2023-04-09T00:58:27.420Z,63.17
2023-04-09T00:58:40.898Z,66.30
2023-04-09T00:58:54.442Z,65.03
2023-04-09T00:59:07.547Z,65.18
2023-04-09T00:59:20.269Z,63.78
2023-04-09T00:59:34.107Z,63.38
2023-04-09T00:59:46.791Z,62.17
2023-04-09T00:59:59.368Z,61.83
2023-04-09T01:00:13.440Z,63.75
2023-04-09T01:00:28.034Z,60.13
2023-04-09T01:00:41.716Z,59.10
2023-04-09T01:00:54.620Z,62.85
2023-04-09T01:01:08.548Z,63.88
2023-04-09T01:01:21.517Z,66.68
2023-04-09T01:01:34.736Z,66.05
2023-04-09T01:01:47.426Z,62.40
2023-04-09T01:02:01.105Z,59.58
2023-04-09T01:02:13.935Z,61.63
2023-04-09T01:02:27.142Z,63.40
2023-04-09T01:02:40.996Z,61.78
2023-04-09T01:02:57.137Z,59.05
2023-04-09T01:03:09.975Z,62.67
2023-04-09T01:03:22.795Z,63.25
2023-04-09T01:03:37.009Z,62.08
2023-04-09T01:03:50.076Z,63.28
2023-04-09T01:04:03.281Z,62.25
2023-04-09T01:04:16.125Z,59.00
2023-04-09T01:04:29.062Z,60.17
2023-04-09T01:04:43.247Z,64.40
2023-04-09T01:04:56.337Z,64.65
2023-04-09T01:05:09.715Z,63.65
2023-04-09T01:05:23.656Z,62.03
2023-04-09T01:05:44.163Z,62.90
2023-04-09T01:06:05.971Z,61.40
2023-04-09T01:06:27.939Z,65.20
2023-04-09T01:06:53.850Z,62.13
2023-04-09T01:07:13.353Z,62.97
2023-04-09T01:07:38.201Z,65.00
2023-04-09T01:08:12.200Z,61.60
2023-04-09T01:08:34.659Z,62.05
2023-04-09T01:08:56.024Z,62.05
2023-04-09T01:09:14.798Z,62.47
2023-04-09T01:09:31.182Z,62.72
2023-04-09T01:09:52.058Z,64.70
2023-04-09T01:10:18.105Z,61.95
2023-04-09T01:10:38.422Z,60.17
2023-04-09T01:10:59.278Z,59.35
2023-04-09T01:11:21.290Z,61.15
2023-04-09T01:11:39.918Z,58.80
2023-04-09T01:12:02.739Z,61.15
2023-04-09T01:12:22.013Z,59.47
2023-04-09T01:12:45.759Z,59.15
2023-04-09T01:13:08.453Z,57.78
2023-04-09T01:13:26.998Z,57.17
2023-04-09T01:13:47.463Z,58.45
2023-04-09T01:14:06.714Z,57.90
2023-04-09T01:14:28.318Z,61.60
2023-04-09T01:14:49.665Z,58.30
2023-04-09T01:15:07.339Z,57.45
2023-04-09T01:15:25.949Z,57.92
2023-04-09T01:15:45.185Z,60.42
2023-04-09T01:16:01.935Z,60.97
2023-04-09T01:16:16.887Z,62.88
2023-04-09T01:16:32.799Z,62.63
2023-04-09T01:16:51.922Z,59.38
2023-04-09T01:17:10.000Z,60.03
2023-04-09T01:17:31.305Z,61.00
2023-04-09T01:17:50.782Z,61.13
2023-04-09T01:18:07.972Z,61.55
2023-04-09T01:18:25.124Z,60.47
2023-04-09T01:18:44.285Z,58.20
2023-04-09T01:19:02.393Z,57.25
2023-04-09T01:19:33.424Z,59.03
2023-04-09T01:19:54.829Z,60.00
2023-04-09T01:20:13.895Z,60.78
2023-04-09T01:20:35.046Z,60.20
2023-04-09T01:20:58.034Z,59.97
2023-04-09T01:21:13.949Z,54.72
2023-04-09T01:21:32.609Z,56.28
2023-04-09T01:21:46.312Z,57.97
2023-04-09T01:22:00.569Z,56.50
2023-04-09T01:22:31.249Z,57.45
2023-04-09T01:22:58.758Z,54.42
2023-04-09T01:23:26.270Z,55.30
2023-04-09T01:23:47.379Z,54.33
2023-04-09T01:24:11.173Z,57.88
2023-04-09T01:24:37.765Z,56.60
2023-04-09T01:25:00.724Z,56.25
2023-04-09T01:25:25.902Z,57.97
2023-04-09T01:25:53.077Z,56.08
2023-04-09T01:26:17.072Z,56.97
2023-04-09T01:26:53.913Z,54.83
2023-04-09T01:27:08.811Z,57.60
2023-04-09T01:27:21.586Z,56.50
2023-04-09T01:27:42.348Z,56.65
2023-04-09T01:28:16.997Z,56.20
2023-04-09T01:28:34.548Z,55.55
2023-04-09T01:28:49.141Z,55.53
2023-04-09T01:29:05.758Z,57.63
2023-04-09T01:29:21.649Z,58.25
2023-04-09T01:29:39.371Z,60.17
2023-04-09T01:29:54.711Z,59.53
2023-04-09T01:30:09.965Z,58.50
2023-04-09T01:30:22.801Z,57.15
2023-04-09T01:30:36.220Z,56.03
2023-04-09T01:30:50.835Z,55.15
2023-04-09T01:31:09.510Z,56.50
2023-04-09T01:31:29.108Z,58.55
2023-04-09T01:31:44.337Z,55.50
2023-04-09T01:31:58.929Z,54.97
2023-04-09T01:32:12.559Z,54.50
2023-04-09T01:32:26.330Z,56.63
2023-04-09T01:32:39.410Z,55.63
2023-04-09T01:32:53.896Z,55.75
2023-04-09T01:33:06.732Z,56.40
2023-04-09T01:33:20.970Z,56.58
2023-04-09T01:33:36.369Z,57.25
2023-04-09T01:33:49.003Z,57.80
2023-04-09T01:34:02.575Z,56.20
2023-04-09T01:34:16.480Z,56.83
2023-04-09T01:34:30.606Z,57.65
2023-04-09T01:34:47.695Z,57.83
2023-04-09T01:35:01.580Z,60.70
2023-04-09T01:35:14.812Z,61.05
2023-04-09T01:35:28.958Z,58.97
2023-04-09T01:35:43.854Z,58.80
2023-04-09T01:35:57.630Z,60.95
2023-04-09T01:36:11.495Z,57.85
2023-04-09T01:36:27.400Z,52.03
2023-04-09T01:36:41.575Z,55.22
2023-04-09T01:36:59.593Z,58.47
2023-04-09T01:37:14.031Z,58.20
2023-04-09T01:37:27.465Z,57.28
2023-04-09T01:37:41.006Z,59.90
2023-04-09T01:37:56.429Z,59.80
2023-04-09T01:38:10.059Z,57.53
2023-04-09T01:38:23.938Z,58.05
2023-04-09T01:38:39.812Z,58.40
2023-04-09T01:38:53.516Z,60.00
2023-04-09T01:39:07.162Z,57.50
2023-04-09T01:39:21.690Z,54.78
2023-04-09T01:39:35.433Z,55.13
2023-04-09T01:39:48.206Z,59.45
2023-04-09T01:40:01.561Z,58.45
2023-04-09T01:40:14.906Z,59.95
2023-04-09T01:40:27.814Z,59.47
2023-04-09T01:40:41.365Z,55.88
2023-04-09T01:40:56.563Z,57.50
2023-04-09T01:41:14.480Z,57.60
2023-04-09T01:41:27.638Z,56.20
2023-04-09T01:41:41.559Z,58.42
2023-04-09T01:41:56.235Z,61.30
2023-04-09T01:42:12.339Z,58.08
2023-04-09T01:42:25.854Z,54.38
2023-04-09T01:42:39.296Z,53.78
2023-04-09T01:42:53.651Z,54.33
2023-04-09T01:43:08.022Z,56.42
2023-04-09T01:43:22.421Z,56.92
2023-04-09T01:43:37.368Z,54.83
2023-04-09T01:43:52.544Z,54.25
2023-04-09T01:44:07.903Z,55.22
2023-04-09T01:44:21.555Z,54.70
2023-04-09T01:44:34.427Z,53.95
2023-04-09T01:44:47.650Z,55.50
2023-04-09T01:45:01.800Z,55.67
2023-04-09T01:45:16.943Z,53.83
2023-04-09T01:45:29.560Z,54.22
2023-04-09T01:45:43.975Z,54.78
2023-04-09T01:45:57.522Z,54.13
2023-04-09T01:46:12.062Z,58.95
2023-04-09T01:46:25.601Z,64.22
2023-04-09T01:46:41.351Z,68.97
2023-04-09T01:46:55.340Z,68.93
2023-04-09T01:47:09.132Z,62.25
2023-04-09T01:47:22.452Z,55.38
2023-04-09T01:47:35.768Z,56.05
2023-04-09T01:47:49.947Z,55.28
2023-04-09T01:48:04.479Z,55.97
2023-04-09T01:48:17.466Z,58.00
2023-04-09T01:48:31.665Z,59.42
2023-04-09T01:48:46.455Z,56.50
2023-04-09T01:48:59.957Z,56.28
2023-04-09T01:49:14.106Z,56.85
2023-04-09T01:49:27.952Z,56.78
2023-04-09T01:49:43.094Z,56.80
2023-04-09T01:49:55.791Z,56.05
2023-04-09T01:50:09.139Z,55.58
2023-04-09T01:50:22.411Z,54.35
2023-04-09T01:50:35.967Z,53.42
2023-04-09T01:50:50.518Z,56.88
2023-04-09T01:51:03.785Z,58.92
2023-04-09T01:51:17.624Z,58.65
2023-04-09T01:51:31.726Z,56.17
2023-04-09T01:51:44.600Z,54.92
2023-04-09T01:51:57.800Z,53.88
2023-04-09T01:52:10.434Z,55.72
2023-04-09T01:52:24.274Z,57.45
2023-04-09T01:52:37.457Z,58.28
2023-04-09T01:52:50.323Z,57.47
2023-04-09T01:53:03.369Z,56.65
2023-04-09T01:53:16.328Z,57.45
2023-04-09T01:53:28.984Z,53.92
2023-04-09T01:53:41.840Z,54.33
2023-04-09T01:53:55.689Z,56.80
2023-04-09T01:54:08.597Z,57.13
2023-04-09T01:54:21.313Z,57.50
2023-04-09T01:54:33.929Z,56.92
2023-04-09T01:54:46.698Z,55.60
2023-04-09T01:54:59.279Z,53.30
2023-04-09T01:55:13.383Z,56.50
2023-04-09T01:55:26.021Z,58.05
2023-04-09T01:55:38.731Z,58.65
2023-04-09T01:55:51.313Z,57.40
2023-04-09T01:56:04.355Z,53.47
2023-04-09T01:56:16.945Z,54.70
2023-04-09T01:56:40.662Z,53.58
2023-04-09T01:56:54.250Z,52.90
2023-04-09T01:57:06.851Z,52.33
2023-04-09T01:57:19.545Z,53.45
2023-04-09T01:57:32.166Z,53.92
2023-04-09T01:57:44.785Z,57.03
2023-04-09T01:57:57.709Z,56.83
2023-04-09T01:58:10.362Z,55.05
2023-04-09T01:58:26.123Z,56.45
2023-04-09T01:58:38.754Z,55.97
2023-04-09T01:58:52.829Z,55.35
2023-04-09T01:59:06.033Z,55.53
2023-04-09T01:59:18.636Z,54.08
2023-04-09T01:59:31.273Z,53.63
2023-04-09T01:59:44.120Z,54.35
2023-04-09T01:59:57.768Z,54.67
2023-04-09T02:00:12.316Z,54.33
2023-04-09T02:00:31.151Z,53.38
2023-04-09T02:00:47.652Z,51.97
2023-04-09T02:01:05.924Z,50.53
2023-04-09T02:01:27.235Z,52.80
2023-04-09T02:01:45.682Z,54.72
2023-04-09T02:02:01.513Z,58.80
2023-04-09T02:02:20.742Z,55.00
2023-04-09T02:02:41.857Z,54.45
2023-04-09T02:03:00.092Z,51.85
2023-04-09T02:03:18.563Z,52.95
2023-04-09T02:03:36.009Z,55.15
2023-04-09T02:03:54.519Z,52.15
2023-04-09T02:04:15.596Z,51.60
2023-04-09T02:04:33.580Z,52.78
2023-04-09T02:04:49.385Z,55.03
2023-04-09T02:05:05.323Z,52.85
2023-04-09T02:05:20.513Z,52.78
2023-04-09T02:05:38.791Z,51.63
2023-04-09T02:05:56.041Z,51.55
2023-04-09T02:06:14.824Z,54.50
2023-04-09T02:06:38.821Z,52.58
2023-04-09T02:06:59.719Z,54.38
2023-04-09T02:07:18.984Z,52.55
2023-04-09T02:07:38.202Z,52.80
2023-04-09T02:07:55.416Z,50.03
2023-04-09T02:08:12.845Z,50.17
2023-04-09T02:08:29.201Z,48.53
2023-04-09T02:08:44.772Z,47.50
2023-04-09T02:09:00.715Z,50.97
2023-04-09T02:09:17.043Z,52.85
2023-04-09T02:09:32.206Z,53.63
2023-04-09T02:09:47.943Z,53.78
2023-04-09T02:10:01.510Z,50.83
2023-04-09T02:10:17.380Z,49.80
2023-04-09T02:10:32.164Z,51.38
2023-04-09T02:10:53.260Z,52.53
2023-04-09T02:11:10.718Z,50.50
2023-04-09T02:11:26.116Z,50.47
2023-04-09T02:11:42.813Z,51.78
2023-04-09T02:11:58.293Z,52.08
2023-04-09T02:12:14.582Z,51.03
2023-04-09T02:12:29.630Z,52.55
2023-04-09T02:12:48.634Z,53.72
2023-04-09T02:13:04.525Z,53.60
2023-04-09T02:13:19.176Z,53.35
2023-04-09T02:13:34.991Z,53.17
2023-04-09T02:13:50.318Z,51.58
2023-04-09T02:14:04.540Z,52.47
2023-04-09T02:14:18.868Z,51.95
2023-04-09T02:14:33.572Z,51.90
2023-04-09T02:14:48.232Z,52.15
2023-04-09T02:15:01.702Z,50.88
2023-04-09T02:15:15.669Z,51.10
2023-04-09T02:15:31.988Z,51.35
2023-04-09T02:15:47.120Z,51.45
2023-04-09T02:16:01.811Z,53.20
2023-04-09T02:16:16.313Z,51.15
2023-04-09T02:16:31.989Z,50.35
2023-04-09T02:16:45.811Z,53.60
2023-04-09T02:16:58.990Z,53.22
2023-04-09T02:17:12.706Z,51.17
2023-04-09T02:17:25.350Z,48.80
2023-04-09T02:17:38.017Z,47.67
2023-04-09T02:17:51.747Z,48.70
2023-04-09T02:18:04.791Z,49.38
2023-04-09T02:18:28.589Z,49.22
2023-04-09T02:18:41.480Z,52.75
2023-04-09T02:18:54.787Z,50.55
2023-04-09T02:19:07.479Z,49.35
2023-04-09T02:19:21.175Z,49.97
2023-04-09T02:19:40.798Z,49.58
2023-04-09T02:19:53.652Z,50.58
2023-04-09T02:20:07.826Z,51.42
2023-04-09T02:20:20.496Z,51.63
2023-04-09T02:20:33.165Z,50.30
2023-04-09T02:20:45.745Z,48.42
2023-04-09T02:21:00.456Z,49.38
2023-04-09T02:21:13.848Z,49.50
2023-04-09T02:21:28.656Z,50.35
2023-04-09T02:21:41.282Z,52.15
2023-04-09T02:21:53.871Z,50.85
2023-04-09T02:22:06.553Z,50.95
2023-04-09T02:22:19.508Z,52.42
2023-04-09T02:22:33.063Z,51.28
2023-04-09T02:22:45.907Z,49.03
2023-04-09T02:22:58.528Z,47.85
2023-04-09T02:23:11.154Z,47.83
2023-04-09T02:23:24.166Z,48.55
2023-04-09T02:23:37.024Z,50.70
2023-04-09T02:23:49.695Z,52.05
2023-04-09T02:24:03.315Z,51.25
2023-04-09T02:24:15.900Z,49.63
2023-04-09T02:24:28.505Z,48.28
2023-04-09T02:24:41.570Z,46.30
2023-04-09T02:24:54.203Z,46.28
2023-04-09T02:25:07.358Z,47.03
2023-04-09T02:25:21.773Z,46.85
2023-04-09T02:25:35.554Z,47.25
2023-04-09T02:25:48.268Z,46.17
2023-04-09T02:26:01.939Z,46.22
2023-04-09T02:26:14.582Z,46.13
2023-04-09T02:26:27.206Z,45.50
2023-04-09T02:26:39.809Z,45.42
2023-04-09T02:26:52.477Z,45.65
2023-04-09T02:27:06.755Z,48.42
2023-04-09T02:27:19.623Z,51.45
2023-04-09T02:27:32.208Z,49.65
2023-04-09T02:27:44.788Z,45.72
2023-04-09T02:27:57.389Z,44.70
2023-04-09T02:28:10.015Z,42.92
2023-04-09T02:28:23.602Z,42.85
2023-04-09T02:28:37.674Z,43.95
2023-04-09T02:28:50.976Z,44.17
2023-04-09T02:29:03.861Z,44.08
2023-04-09T02:29:16.451Z,42.38
2023-04-09T02:29:29.128Z,42.20
2023-04-09T02:29:41.818Z,43.42
2023-04-09T02:29:54.416Z,45.03
2023-04-09T02:30:09.324Z,44.97
2023-04-09T02:30:22.124Z,46.58
2023-04-09T02:30:34.777Z,46.38
2023-04-09T02:30:47.631Z,45.05
2023-04-09T02:31:00.576Z,47.00
2023-04-09T02:31:13.303Z,45.72
2023-04-09T02:31:27.010Z,44.92
2023-04-09T02:31:39.588Z,44.95
2023-04-09T02:31:53.254Z,45.20
2023-04-09T02:32:06.542Z,46.20
2023-04-09T02:32:19.160Z,47.95
2023-04-09T02:32:31.837Z,48.00
2023-04-09T02:32:44.537Z,44.65
2023-04-09T02:32:57.210Z,45.35
2023-04-09T02:33:10.977Z,43.70
2023-04-09T02:33:23.610Z,43.22
2023-04-09T02:33:36.383Z,41.90
2023-04-09T02:33:48.989Z,42.40
2023-04-09T02:34:01.582Z,43.08
2023-04-09T02:34:14.173Z,43.03
2023-04-09T02:34:27.086Z,43.70
2023-04-09T02:34:40.973Z,45.00
2023-04-09T02:34:53.849Z,42.65
2023-04-09T02:35:07.108Z,42.83
2023-04-09T02:35:19.685Z,44.45
2023-04-09T02:35:32.447Z,43.97
2023-04-09T02:35:45.261Z,41.35
2023-04-09T02:35:58.849Z,41.13
2023-04-09T02:36:12.063Z,42.25
2023-04-09T02:36:24.688Z,42.45
2023-04-09T02:36:37.330Z,42.88
2023-04-09T02:36:50.001Z,42.47
2023-04-09T02:37:02.669Z,41.10
2023-04-09T02:37:15.444Z,41.20
2023-04-09T02:37:28.085Z,41.28
2023-04-09T02:37:41.671Z,40.88
2023-04-09T02:37:54.304Z,42.75
2023-04-09T02:38:08.174Z,44.10
2023-04-09T02:38:20.790Z,43.95
2023-04-09T02:38:33.458Z,43.28
2023-04-09T02:38:46.323Z,40.40
2023-04-09T02:38:58.881Z,39.38
2023-04-09T02:39:11.487Z,39.30
2023-04-09T02:39:25.106Z,40.22
2023-04-09T02:39:37.724Z,40.90
2023-04-09T02:39:50.319Z,41.10
2023-04-09T02:40:04.566Z,40.20
2023-04-09T02:40:17.381Z,41.63
2023-04-09T02:40:30.151Z,42.78
2023-04-09T02:40:43.977Z,41.10
2023-04-09T02:40:56.666Z,41.15
2023-04-09T02:41:09.508Z,40.72
2023-04-09T02:41:22.234Z,41.70
2023-04-09T02:41:34.839Z,41.08
2023-04-09T02:41:47.451Z,41.35
2023-04-09T02:42:00.058Z,41.92
2023-04-09T02:42:13.743Z,42.15
2023-04-09T02:42:26.640Z,40.03
2023-04-09T02:42:39.224Z,39.42
2023-04-09T02:42:52.223Z,40.17
2023-04-09T02:43:04.813Z,40.03
2023-04-09T02:43:17.457Z,40.33
2023-04-09T02:43:30.093Z,40.30
2023-04-09T02:43:45.038Z,40.55
2023-04-09T02:43:57.614Z,39.38
2023-04-09T02:44:10.328Z,39.53
2023-04-09T02:44:22.904Z,39.92
2023-04-09T02:44:35.659Z,40.30
2023-04-09T02:44:48.469Z,38.45
2023-04-09T02:45:01.323Z,39.50
2023-04-09T02:45:15.046Z,39.45
2023-04-09T02:45:27.683Z,39.15
2023-04-09T02:45:40.358Z,39.05
2023-04-09T02:45:53.006Z,39.08
2023-04-09T02:46:07.825Z,39.13
2023-04-09T02:46:20.804Z,38.00
2023-04-09T02:46:33.548Z,38.45
2023-04-09T02:46:49.211Z,38.75
2023-04-09T02:47:02.131Z,38.45
2023-04-09T02:47:15.014Z,39.22
2023-04-09T02:47:27.645Z,39.33
2023-04-09T02:47:40.348Z,39.78
2023-04-09T02:47:53.074Z,39.55
2023-04-09T02:48:06.969Z,38.85
2023-04-09T02:48:19.539Z,39.97
2023-04-09T02:48:32.182Z,41.05
2023-04-09T02:48:44.923Z,39.35
2023-04-09T02:48:57.546Z,38.83
2023-04-09T02:49:10.202Z,38.40
2023-04-09T02:49:22.782Z,38.92
2023-04-09T02:49:36.358Z,38.38
2023-04-09T02:49:49.148Z,38.70
2023-04-09T02:50:02.073Z,39.15
2023-04-09T02:50:14.748Z,39.10
2023-04-09T02:50:29.330Z,38.83
2023-04-09T02:50:42.200Z,40.67
2023-04-09T02:50:56.059Z,40.65
2023-04-09T02:51:08.705Z,40.65
2023-04-09T02:51:21.771Z,40.95
2023-04-09T02:51:35.191Z,40.03
2023-04-09T02:51:47.782Z,40.00
2023-04-09T02:52:00.354Z,38.97
2023-04-09T02:52:13.960Z,38.75
2023-04-09T02:52:26.580Z,37.53
2023-04-09T02:52:39.158Z,37.40
2023-04-09T02:52:51.754Z,37.90
2023-04-09T02:53:04.359Z,36.97
2023-04-09T02:53:16.986Z,37.42
2023-04-09T02:53:29.607Z,37.20
2023-04-09T02:53:42.216Z,37.42
2023-04-09T02:53:56.092Z,36.85
2023-04-09T02:54:08.689Z,37.95
2023-04-09T02:54:21.344Z,37.33
2023-04-09T02:54:33.948Z,39.20
2023-04-09T02:54:46.573Z,39.83
2023-04-09T02:54:59.156Z,39.08
2023-04-09T02:55:12.799Z,38.30
2023-04-09T02:55:25.491Z,39.63
2023-04-09T02:55:38.250Z,39.15
2023-04-09T02:55:50.910Z,38.30
2023-04-09T02:56:04.161Z,38.42
2023-04-09T02:56:16.798Z,38.55
2023-04-09T02:56:30.511Z,37.50
2023-04-09T02:56:43.164Z,37.92
2023-04-09T02:56:56.346Z,38.78
2023-04-09T02:57:08.934Z,37.40
2023-04-09T02:57:21.521Z,38.97
2023-04-09T02:57:34.575Z,40.40
2023-04-09T02:57:47.175Z,39.38
2023-04-09T02:58:00.804Z,38.90
2023-04-09T02:58:13.412Z,37.97
2023-04-09T02:58:26.020Z,36.70
2023-04-09T02:58:38.615Z,36.63
2023-04-09T02:58:54.292Z,38.28
2023-04-09T02:59:07.115Z,39.22
2023-04-09T02:59:19.937Z,40.75
2023-04-09T02:59:35.787Z,40.50
2023-04-09T02:59:48.348Z,38.08
2023-04-09T03:00:00.966Z,38.88
2023-04-09T03:00:14.289Z,39.33
2023-04-09T03:00:26.888Z,39.30
2023-04-09T03:00:39.497Z,39.83
2023-04-09T03:00:53.093Z,39.72
2023-04-09T03:01:07.436Z,39.08
2023-04-09T03:01:20.569Z,39.15
2023-04-09T03:01:33.314Z,39.35
2023-04-09T03:01:46.009Z,40.13
2023-04-09T03:01:58.922Z,40.45
2023-04-09T03:02:12.107Z,39.90
2023-04-09T03:02:26.108Z,38.55
2023-04-09T03:02:38.935Z,38.92
2023-04-09T03:02:51.874Z,39.30
2023-04-09T03:03:04.878Z,39.95
2023-04-09T03:03:17.728Z,40.03
2023-04-09T03:03:31.077Z,39.30
2023-04-09T03:03:44.898Z,37.53
2023-04-09T03:03:57.819Z,38.08
2023-04-09T03:04:10.632Z,39.05
2023-04-09T03:04:23.419Z,40.72
2023-04-09T03:04:36.266Z,41.63